createdAt,value
2023-01-03T00:02:00.571Z,93.10
2023-01-03T00:04:27.277Z,92.80
2023-01-03T00:06:53.940Z,90.70
2023-01-03T00:09:21.999Z,89.80
2023-01-03T00:12:08.033Z,89.40
2023-01-03T00:14:35.892Z,89.10
2023-01-03T00:17:03.252Z,88.90
2023-01-03T00:19:30.891Z,88.80
2023-01-03T00:21:57.490Z,88.90
2023-01-03T00:24:24.115Z,88.80
2023-01-03T00:26:50.961Z,88.50
2023-01-03T00:29:17.569Z,88.80
2023-01-03T00:31:44.174Z,88.80
2023-01-03T00:34:10.784Z,88.70
2023-01-03T00:36:37.694Z,88.60
2023-01-03T00:39:04.382Z,88.50
2023-01-03T00:41:31.046Z,88.60
2023-01-03T00:43:58.053Z,88.50
2023-01-03T00:46:24.841Z,88.50
2023-01-03T00:48:51.553Z,88.50
2023-01-03T00:51:20.067Z,88.50
2023-01-03T00:53:47.381Z,88.40
2023-01-03T00:56:15.422Z,88.40
2023-01-03T00:58:42.391Z,88.40
2023-01-03T01:01:10.400Z,88.40
2023-01-03T01:03:38.035Z,88.40
2023-01-03T01:06:15.260Z,88.30
2023-01-03T01:08:42.719Z,88.30
2023-01-03T01:11:09.800Z,88.40
2023-01-03T01:13:36.957Z,88.40
2023-01-03T01:16:08.085Z,88.30
2023-01-03T01:18:35.028Z,88.30
2023-01-03T01:21:04.172Z,89.00
2023-01-03T01:23:30.745Z,90.40
2023-01-03T01:25:59.999Z,89.70
2023-01-03T01:28:26.827Z,89.50
2023-01-03T01:30:53.465Z,89.00
2023-01-03T01:33:20.414Z,88.80
2023-01-03T01:35:47.030Z,88.80
2023-01-03T01:38:13.619Z,88.70
2023-01-03T01:40:40.180Z,89.00
2023-01-03T01:43:42.235Z,89.40
2023-01-03T01:46:21.081Z,89.30
2023-01-03T01:48:49.491Z,89.00
2023-01-03T01:51:17.258Z,88.80
2023-01-03T01:53:43.931Z,88.80
2023-01-03T01:56:15.945Z,88.70
2023-01-03T01:58:44.646Z,88.70
2023-01-03T02:01:12.656Z,88.70
2023-01-03T02:03:41.047Z,88.60
2023-01-03T02:06:09.212Z,88.50
2023-01-03T02:08:35.770Z,88.50
2023-01-03T02:11:02.331Z,88.40
2023-01-03T02:13:59.813Z,88.40
2023-01-03T02:16:38.586Z,88.40
2023-01-03T02:19:14.228Z,88.50
2023-01-03T02:21:40.813Z,88.70
2023-01-03T02:24:19.654Z,88.70
2023-01-03T02:26:52.374Z,88.70
2023-01-03T02:29:21.930Z,88.60
2023-01-03T02:31:52.544Z,88.50
2023-01-03T02:34:37.995Z,88.70
2023-01-03T02:37:13.811Z,88.50
2023-01-03T02:39:41.379Z,88.40
2023-01-03T02:42:37.884Z,88.50
2023-01-03T02:45:08.307Z,88.40
2023-01-03T02:47:46.354Z,88.40
2023-01-03T02:50:13.910Z,88.40
2023-01-03T02:52:41.195Z,88.40
2023-01-03T02:55:17.581Z,88.40
2023-01-03T02:57:47.872Z,88.30
2023-01-03T03:00:16.426Z,88.30
2023-01-03T03:02:50.136Z,88.40
2023-01-03T03:05:20.134Z,88.20
2023-01-03T03:07:46.988Z,88.20
2023-01-03T03:10:32.032Z,88.20
2023-01-03T03:13:15.818Z,88.10
2023-01-03T03:15:42.517Z,88.20
2023-01-03T03:18:11.688Z,88.20
2023-01-03T03:20:56.791Z,88.20
2023-01-03T03:23:43.951Z,88.10
2023-01-03T03:26:13.454Z,88.10
2023-01-03T03:28:43.456Z,88.20
2023-01-03T03:31:18.386Z,88.10
2023-01-03T03:33:51.193Z,88.10
2023-01-03T03:36:22.169Z,88.10
2023-01-03T03:38:48.935Z,88.10
2023-01-03T03:41:43.902Z,88.10
2023-01-03T03:44:36.128Z,88.10
2023-01-03T03:47:28.971Z,88.10
2023-01-03T03:49:57.565Z,88.10
2023-01-03T03:52:26.217Z,88.20
2023-01-03T03:55:09.173Z,88.10
2023-01-03T03:57:37.083Z,88.10
2023-01-03T04:00:16.096Z,88.10
2023-01-03T04:02:43.615Z,88.10
2023-01-03T04:05:11.027Z,88.10
2023-01-03T04:07:37.744Z,88.10
2023-01-03T04:10:04.986Z,88.10
2023-01-03T04:12:31.617Z,88.10
2023-01-03T04:14:58.245Z,88.10
2023-01-03T04:17:24.849Z,88.00
2023-01-03T04:19:51.796Z,88.10
2023-01-03T04:22:18.467Z,88.80
2023-01-03T04:24:45.035Z,91.00
2023-01-03T04:27:11.599Z,92.20
2023-01-03T04:29:39.589Z,91.70
2023-01-03T04:32:07.053Z,90.90
2023-01-03T04:34:33.695Z,91.00
2023-01-03T04:37:00.287Z,90.80
2023-01-03T04:39:26.872Z,90.20
2023-01-03T04:41:53.456Z,90.30
2023-01-03T04:44:20.037Z,90.00
2023-01-03T04:46:52.486Z,90.20
2023-01-03T04:49:20.359Z,90.10
2023-01-03T04:51:46.937Z,89.70
2023-01-03T04:54:13.498Z,90.00
2023-01-03T04:56:40.091Z,90.00
2023-01-03T04:59:06.689Z,89.70
2023-01-03T05:01:33.543Z,89.70
2023-01-03T05:04:00.876Z,89.60
2023-01-03T05:06:27.999Z,89.50
2023-01-03T05:08:55.072Z,89.50
2023-01-03T05:11:21.665Z,89.60
2023-01-03T05:13:48.240Z,89.70
2023-01-03T05:16:15.102Z,89.70
2023-01-03T05:18:42.493Z,89.90
2023-01-03T05:21:31.260Z,90.10
2023-01-03T05:24:16.478Z,90.10
2023-01-03T05:26:43.818Z,90.10
2023-01-03T05:29:11.376Z,90.10
2023-01-03T05:31:38.057Z,90.10
2023-01-03T05:34:04.877Z,89.90
2023-01-03T05:36:31.495Z,89.80
2023-01-03T05:38:58.090Z,89.70
2023-01-03T05:41:43.498Z,89.60
2023-01-03T05:44:10.130Z,89.60
2023-01-03T05:46:36.789Z,89.50
2023-01-03T05:49:03.533Z,89.40
2023-01-03T05:51:30.136Z,89.10
2023-01-03T05:53:56.703Z,89.00
2023-01-03T05:56:23.323Z,88.80
2023-01-03T05:58:49.928Z,88.80
2023-01-03T06:01:16.738Z,88.70
2023-01-03T06:03:47.163Z,88.80
2023-01-03T06:06:15.163Z,88.70
2023-01-03T06:08:41.716Z,88.80
2023-01-03T06:11:09.326Z,88.70
2023-01-03T06:13:36.413Z,88.70
2023-01-03T06:16:24.798Z,88.50
2023-01-03T06:18:51.750Z,88.50
2023-01-03T06:21:18.828Z,88.50
2023-01-03T06:23:47.408Z,88.50
2023-01-03T06:26:15.092Z,88.50
2023-01-03T06:28:41.915Z,88.40
2023-01-03T06:31:08.897Z,88.40
2023-01-03T06:33:35.732Z,88.40
2023-01-03T06:36:03.624Z,88.40
2023-01-03T06:38:30.259Z,88.30
2023-01-03T06:40:56.879Z,88.40
2023-01-03T06:43:23.550Z,88.30
2023-01-03T06:46:08.828Z,88.10
2023-01-03T06:48:53.904Z,88.10
2023-01-03T06:51:40.176Z,88.10
2023-01-03T06:54:07.769Z,88.20
2023-01-03T06:56:34.439Z,88.30
2023-01-03T06:59:01.034Z,88.30
2023-01-03T07:01:27.753Z,88.30
2023-01-03T07:03:54.418Z,88.30
2023-01-03T07:06:21.078Z,88.20
2023-01-03T07:08:48.668Z,88.40
2023-01-03T07:11:15.423Z,88.30
2023-01-03T07:14:00.571Z,88.20
2023-01-03T07:16:30.327Z,88.30
2023-01-03T07:18:57.695Z,88.20
2023-01-03T07:21:25.118Z,88.20
2023-01-03T07:23:55.036Z,88.20
2023-01-03T07:26:22.102Z,88.10
2023-01-03T07:28:48.666Z,88.20
2023-01-03T07:31:15.346Z,88.20
2023-01-03T07:33:42.025Z,88.10
2023-01-03T07:36:12.116Z,88.10
2023-01-03T07:38:39.302Z,88.20
2023-01-03T07:41:08.112Z,88.10
2023-01-03T07:43:37.940Z,88.10
2023-01-03T07:46:15.664Z,88.10
2023-01-03T07:48:43.109Z,87.90
2023-01-03T07:51:11.011Z,87.90
2023-01-03T07:53:39.823Z,87.90
2023-01-03T07:56:12.573Z,87.90
2023-01-03T07:58:40.136Z,87.80
2023-01-03T08:01:08.124Z,87.90
2023-01-03T08:03:35.204Z,87.80
2023-01-03T08:06:02.930Z,87.70
2023-01-03T08:08:29.522Z,87.60
2023-01-03T08:11:14.588Z,87.60
2023-01-03T08:13:41.826Z,87.60
2023-01-03T08:16:10.170Z,87.40
2023-01-03T08:18:37.306Z,87.40
2023-01-03T08:21:03.986Z,87.20
2023-01-03T08:23:30.945Z,87.30
2023-01-03T08:26:01.710Z,87.20
2023-01-03T08:28:28.448Z,87.40
2023-01-03T08:30:55.121Z,87.40
2023-01-03T08:33:21.819Z,87.60
2023-01-03T08:35:50.858Z,87.00
2023-01-03T08:38:21.174Z,86.10
2023-01-03T08:40:47.868Z,85.70
2023-01-03T08:43:15.472Z,85.80
2023-01-03T08:45:42.269Z,85.90
2023-01-03T08:48:10.040Z,85.90
2023-01-03T08:50:37.078Z,85.90
2023-01-03T08:53:05.716Z,86.00
2023-01-03T08:55:33.016Z,86.10
2023-01-03T08:58:00.170Z,86.00
2023-01-03T09:00:27.338Z,86.20
2023-01-03T09:02:54.264Z,86.20
2023-01-03T09:05:21.555Z,86.10
2023-01-03T09:07:48.120Z,86.20
2023-01-03T09:10:14.691Z,86.30
2023-01-03T09:12:41.281Z,86.30
2023-01-03T09:15:08.131Z,86.30
2023-01-03T09:17:34.729Z,86.30
2023-01-03T09:20:01.317Z,86.30
2023-01-03T09:22:27.904Z,86.30
2023-01-03T09:24:55.520Z,86.30
2023-01-03T09:27:22.169Z,86.30
2023-01-03T09:29:48.853Z,86.30
2023-01-03T09:32:15.529Z,86.40
2023-01-03T09:34:42.253Z,86.30
2023-01-03T09:37:08.825Z,86.40
2023-01-03T09:39:35.450Z,87.20
2023-01-03T09:42:21.051Z,87.50
2023-01-03T09:44:47.703Z,87.70
2023-01-03T09:47:18.861Z,87.20
2023-01-03T09:50:18.444Z,87.40
2023-01-03T09:52:52.306Z,87.20
2023-01-03T09:55:42.389Z,86.90
2023-01-03T09:58:32.816Z,86.90
2023-01-03T10:01:36.906Z,86.80
2023-01-03T10:04:11.018Z,86.80
2023-01-03T10:06:50.614Z,86.80
2023-01-03T10:09:22.521Z,86.90
2023-01-03T10:11:55.269Z,86.80
2023-01-03T10:14:34.161Z,86.70
2023-01-03T10:17:03.870Z,86.80
2023-01-03T10:19:30.446Z,86.60
2023-01-03T10:22:08.381Z,86.70
2023-01-03T10:24:45.393Z,86.60
2023-01-03T10:27:16.875Z,86.70
2023-01-03T10:29:44.764Z,86.70
2023-01-03T10:32:30.241Z,86.70
2023-01-03T10:35:02.832Z,86.80
2023-01-03T10:37:29.712Z,86.70
2023-01-03T10:40:03.328Z,86.80
2023-01-03T10:42:32.714Z,86.80
2023-01-03T10:45:05.144Z,86.80
2023-01-03T10:47:31.875Z,86.80
2023-01-03T10:49:59.657Z,86.70
2023-01-03T10:52:30.436Z,86.80
2023-01-03T10:55:02.112Z,86.80
2023-01-03T10:57:48.502Z,86.80
2023-01-03T11:00:26.655Z,86.60
2023-01-03T11:02:54.397Z,86.60
2023-01-03T11:05:25.546Z,86.60
2023-01-03T11:07:56.358Z,86.60
2023-01-03T11:10:23.743Z,86.60
2023-01-03T11:12:50.454Z,86.60
2023-01-03T11:15:37.903Z,86.50
2023-01-03T11:18:16.007Z,86.60
2023-01-03T11:20:48.492Z,86.60
2023-01-03T11:23:25.450Z,86.60
2023-01-03T11:26:00.130Z,86.60
2023-01-03T11:28:29.585Z,86.60
2023-01-03T11:31:16.285Z,86.50
2023-01-03T11:34:09.161Z,86.60
2023-01-03T11:36:44.163Z,86.60
2023-01-03T11:39:27.037Z,86.50
2023-01-03T11:42:16.359Z,86.60
2023-01-03T11:44:49.791Z,86.60
2023-01-03T11:47:35.023Z,86.60
2023-01-03T11:50:08.606Z,86.60
2023-01-03T11:52:35.213Z,86.60
2023-01-03T11:55:16.802Z,86.60
2023-01-03T11:58:02.407Z,86.80
2023-01-03T12:00:56.168Z,86.60
2023-01-03T12:03:42.426Z,86.70
2023-01-03T12:06:17.051Z,86.70
2023-01-03T12:08:47.369Z,86.70
2023-01-03T12:11:22.949Z,86.60
2023-01-03T12:14:01.509Z,86.80
2023-01-03T12:16:40.592Z,86.80
2023-01-03T12:19:31.543Z,86.80
2023-01-03T12:22:04.950Z,86.60
2023-01-03T12:24:43.599Z,86.80
2023-01-03T12:27:25.553Z,86.60
2023-01-03T12:30:10.928Z,86.80
2023-01-03T12:32:49.432Z,86.80
2023-01-03T12:35:39.895Z,86.80
2023-01-03T12:38:09.379Z,86.70
2023-01-03T12:40:39.301Z,86.80
2023-01-03T12:43:08.607Z,86.60
2023-01-03T12:45:38.833Z,86.60
2023-01-03T12:48:05.551Z,86.60
2023-01-03T12:50:48.383Z,86.60
2023-01-03T12:53:22.335Z,86.70
2023-01-03T12:56:13.296Z,86.80
2023-01-03T12:58:58.129Z,86.80
2023-01-03T13:01:45.600Z,86.90
2023-01-03T13:04:23.524Z,86.70
2023-01-03T13:07:03.520Z,86.80
2023-01-03T13:09:36.668Z,86.80
2023-01-03T13:12:12.576Z,86.70
2023-01-03T13:14:53.387Z,86.80
2023-01-03T13:17:22.455Z,86.70
2023-01-03T13:19:52.049Z,86.70
2023-01-03T13:22:18.803Z,86.60
2023-01-03T13:24:46.516Z,86.60
2023-01-03T13:27:16.167Z,86.70
2023-01-03T13:29:44.604Z,86.70
2023-01-03T13:32:38.011Z,86.70
2023-01-03T13:35:05.118Z,86.80
2023-01-03T13:37:48.423Z,86.70
2023-01-03T13:40:21.235Z,86.80
2023-01-03T13:42:47.895Z,86.70
2023-01-03T13:45:23.582Z,86.80
2023-01-03T13:47:51.326Z,86.80
2023-01-03T13:50:24.288Z,86.80
2023-01-03T13:52:58.307Z,86.80
2023-01-03T13:55:38.693Z,86.80
2023-01-03T13:58:28.386Z,86.80
2023-01-03T14:01:01.797Z,86.80
2023-01-03T14:03:32.160Z,86.80
2023-01-03T14:06:02.059Z,86.90
2023-01-03T14:08:35.919Z,86.80
2023-01-03T14:11:21.160Z,86.90
2023-01-03T14:13:53.293Z,87.70
2023-01-03T14:16:25.995Z,87.50
2023-01-03T14:19:01.854Z,87.10
2023-01-03T14:21:54.802Z,87.00
2023-01-03T14:24:26.461Z,87.00
2023-01-03T14:26:53.714Z,86.80
2023-01-03T14:29:22.013Z,86.80
2023-01-03T14:31:50.586Z,86.80
2023-01-03T14:34:21.497Z,86.60
2023-01-03T14:36:48.163Z,86.50
2023-01-03T14:39:22.361Z,86.50
2023-01-03T14:41:48.919Z,86.40
2023-01-03T14:44:16.603Z,86.50
2023-01-03T14:46:50.711Z,86.50
2023-01-03T14:49:28.844Z,86.50
2023-01-03T14:52:02.819Z,86.40
2023-01-03T14:54:29.818Z,86.40
2023-01-03T14:56:56.651Z,86.40
2023-01-03T14:59:23.571Z,86.40
2023-01-03T15:01:50.646Z,86.40
2023-01-03T15:04:17.513Z,86.40
2023-01-03T15:07:03.430Z,86.30
2023-01-03T15:09:34.271Z,86.20
2023-01-03T15:12:04.847Z,86.30
2023-01-03T15:14:32.550Z,86.30
2023-01-03T15:17:23.421Z,86.30
2023-01-03T15:19:55.317Z,86.30
2023-01-03T15:22:23.631Z,86.20
2023-01-03T15:25:01.528Z,86.30
2023-01-03T15:27:37.497Z,86.30
2023-01-03T15:30:20.823Z,86.20
2023-01-03T15:33:01.345Z,86.20
2023-01-03T15:35:33.773Z,86.20
2023-01-03T15:38:02.394Z,86.20
2023-01-03T15:40:30.295Z,86.20
2023-01-03T15:43:16.082Z,86.30
2023-01-03T15:45:42.706Z,86.30
2023-01-03T15:48:14.367Z,86.30
2023-01-03T15:50:47.045Z,88.40
2023-01-03T15:53:28.157Z,90.10
2023-01-03T15:55:57.080Z,91.00
2023-01-03T15:58:24.940Z,91.20
2023-01-03T16:00:52.010Z,91.10
2023-01-03T16:03:18.963Z,91.20
2023-01-03T16:05:45.680Z,91.00
2023-01-03T16:08:21.681Z,90.80
2023-01-03T16:10:48.561Z,90.70
2023-01-03T16:13:15.814Z,90.50
2023-01-03T16:15:43.669Z,90.50
2023-01-03T16:18:17.994Z,89.90
2023-01-03T16:20:44.785Z,89.50
2023-01-03T16:23:31.642Z,89.20
2023-01-03T16:25:58.596Z,89.10
2023-01-03T16:28:25.744Z,89.20
2023-01-03T16:30:57.856Z,89.60
2023-01-03T16:33:26.884Z,89.40
2023-01-03T16:35:53.845Z,89.30
2023-01-03T16:38:20.964Z,89.20
2023-01-03T16:40:47.527Z,89.10
2023-01-03T16:43:14.363Z,89.30
2023-01-03T16:45:47.146Z,89.10
2023-01-03T16:48:16.335Z,89.00
2023-01-03T16:50:43.411Z,89.10
2023-01-03T16:53:10.175Z,89.00
2023-01-03T16:55:39.402Z,89.20
2023-01-03T16:58:07.146Z,89.90
2023-01-03T17:00:34.717Z,89.10
2023-01-03T17:03:01.751Z,88.50
2023-01-03T17:05:31.504Z,88.10
2023-01-03T17:08:12.280Z,87.90
2023-01-03T17:10:39.984Z,87.90
2023-01-03T17:13:12.549Z,87.70
2023-01-03T17:15:40.339Z,87.50
2023-01-03T17:18:09.623Z,87.70
2023-01-03T17:20:36.327Z,87.60
2023-01-03T17:23:04.041Z,87.40
2023-01-03T17:25:30.622Z,87.40
2023-01-03T17:27:58.934Z,87.20
2023-01-03T17:30:27.138Z,87.20
2023-01-03T17:32:55.200Z,87.20
2023-01-03T17:35:22.094Z,87.20
2023-01-03T17:38:24.058Z,87.20
2023-01-03T17:40:42.271Z,87.20
2023-01-03T17:43:14.038Z,87.20
2023-01-03T17:45:59.156Z,89.20
2023-01-03T17:48:44.295Z,90.50
2023-01-03T17:51:12.470Z,90.80
2023-01-03T17:53:39.229Z,89.20
2023-01-03T17:56:05.883Z,88.20
2023-01-03T17:58:33.822Z,87.70
2023-01-03T18:01:00.558Z,87.30
2023-01-03T18:03:27.493Z,87.10
2023-01-03T18:05:54.297Z,87.60
2023-01-03T18:08:21.776Z,87.50
2023-01-03T18:10:49.242Z,87.20
2023-01-03T18:13:29.864Z,86.90
2023-01-03T18:15:56.589Z,86.90
2023-01-03T18:18:24.034Z,86.90
2023-01-03T18:20:50.938Z,86.80
2023-01-03T18:23:37.809Z,87.00
2023-01-03T18:26:06.339Z,87.10
2023-01-03T18:28:33.359Z,86.80
2023-01-03T18:31:00.199Z,87.00
2023-01-03T18:33:26.870Z,87.20
2023-01-03T18:35:53.677Z,87.10
2023-01-03T18:38:23.459Z,86.80
2023-01-03T18:40:50.301Z,86.70
2023-01-03T18:43:17.736Z,86.60
2023-01-03T18:45:44.596Z,86.60
2023-01-03T18:48:13.487Z,86.60
2023-01-03T18:50:40.306Z,86.60
2023-01-03T18:53:07.378Z,86.60
2023-01-03T18:55:34.698Z,86.60
2023-01-03T18:58:12.459Z,86.50
2023-01-03T19:00:39.016Z,86.50
2023-01-03T19:03:19.085Z,86.50
2023-01-03T19:05:45.748Z,86.80
2023-01-03T19:08:13.089Z,86.80
2023-01-03T19:10:39.681Z,87.00
2023-01-03T19:13:06.295Z,87.00
2023-01-03T19:15:32.894Z,87.70
2023-01-03T19:18:01.252Z,87.80
2023-01-03T19:20:28.024Z,87.10
2023-01-03T19:22:54.951Z,87.10
2023-01-03T19:25:26.209Z,87.00
2023-01-03T19:27:54.320Z,86.90
2023-01-03T19:30:35.272Z,86.80
2023-01-03T19:33:05.013Z,88.60
2023-01-03T19:35:31.577Z,88.70
2023-01-03T19:37:58.197Z,87.60
2023-01-03T19:40:26.384Z,87.60
2023-01-03T19:42:57.097Z,87.40
2023-01-03T19:45:27.884Z,87.20
2023-01-03T19:47:58.720Z,87.00
2023-01-03T19:50:26.439Z,86.80
2023-01-03T19:52:53.650Z,86.60
2023-01-03T19:55:22.350Z,86.50
2023-01-03T19:57:50.536Z,86.50
2023-01-03T20:00:25.076Z,86.50
2023-01-03T20:02:53.294Z,86.50
2023-01-03T20:05:21.717Z,86.80
2023-01-03T20:07:48.970Z,87.00
2023-01-03T20:10:16.812Z,87.00
2023-01-03T20:12:43.627Z,87.00
2023-01-03T20:15:15.348Z,86.90
2023-01-03T20:17:41.973Z,87.00
2023-01-03T20:20:09.788Z,86.90
2023-01-03T20:25:23.227Z,88.10
2023-01-03T20:27:50.483Z,87.60
2023-01-03T20:30:18.423Z,87.10
2023-01-03T20:32:45.133Z,87.00
2023-01-03T20:36:06.968Z,86.90
2023-01-03T20:38:02.275Z,86.70
2023-01-03T20:40:28.856Z,86.80
2023-01-03T20:42:56.332Z,86.60
2023-01-03T20:45:23.005Z,86.60
2023-01-03T20:47:52.267Z,86.60
2023-01-03T20:50:20.144Z,86.60
2023-01-03T20:52:47.060Z,86.60
2023-01-03T20:55:14.838Z,86.60
2023-01-03T20:57:41.601Z,86.50
2023-01-03T21:00:17.591Z,86.60
2023-01-03T21:02:44.286Z,86.60
2023-01-03T21:05:11.075Z,86.50
2023-01-03T21:07:56.214Z,86.40
2023-01-03T21:10:25.014Z,86.40
2023-01-03T21:12:51.590Z,86.30
2023-01-03T21:15:18.159Z,86.40
2023-01-03T21:17:50.567Z,86.40
2023-01-03T21:20:22.818Z,86.40
2023-01-03T21:22:49.668Z,86.40
2023-01-03T21:25:22.175Z,86.40
2023-01-03T21:27:49.142Z,86.40
2023-01-03T21:30:17.270Z,86.40
2023-01-03T21:32:43.867Z,86.40
2023-01-03T21:35:11.846Z,87.20
2023-01-03T21:37:38.488Z,89.00
2023-01-03T21:40:05.657Z,89.10
2023-01-03T21:42:51.062Z,89.00
2023-01-03T21:45:17.670Z,88.70
2023-01-03T21:47:44.289Z,88.50
2023-01-03T21:50:10.999Z,88.50
2023-01-03T21:52:37.625Z,88.50
2023-01-03T21:55:05.109Z,88.30
2023-01-03T21:57:34.033Z,88.20
2023-01-03T22:00:00.605Z,88.30
2023-01-03T22:02:45.628Z,88.20
2023-01-03T22:05:12.323Z,88.40
2023-01-03T22:07:38.987Z,88.20
2023-01-03T22:10:18.960Z,88.00
2023-01-03T22:12:46.771Z,88.30
2023-01-03T22:15:13.771Z,88.10
2023-01-03T22:17:40.470Z,88.40
2023-01-03T22:20:08.168Z,87.90
2023-01-03T22:22:34.943Z,87.30
2023-01-03T22:25:01.550Z,87.10
2023-01-03T22:27:28.213Z,86.90
2023-01-03T22:29:54.788Z,86.90
2023-01-03T22:32:24.671Z,86.90
2023-01-03T22:34:51.844Z,86.80
2023-01-03T22:37:18.432Z,86.60
2023-01-03T22:39:45.012Z,86.80
2023-01-03T22:42:17.628Z,86.70
2023-01-03T22:44:46.290Z,86.70
2023-01-03T22:47:12.858Z,86.50
2023-01-03T22:49:39.734Z,86.50
2023-01-03T22:52:06.750Z,86.50
2023-01-03T22:54:35.188Z,86.50
2023-01-03T22:57:02.202Z,86.60
2023-01-03T22:59:30.395Z,86.50
2023-01-03T23:01:57.786Z,86.50
2023-01-03T23:04:26.317Z,86.50
2023-01-03T23:06:53.812Z,86.60
2023-01-03T23:09:21.225Z,86.80
2023-01-03T23:12:06.657Z,86.90
2023-01-03T23:14:33.376Z,86.90
2023-01-03T23:17:20.240Z,87.00
2023-01-03T23:19:46.809Z,87.00
2023-01-03T23:22:13.492Z,87.00
2023-01-03T23:24:40.087Z,87.00
2023-01-03T23:27:06.740Z,87.10
2023-01-03T23:29:33.338Z,88.60
2023-01-03T23:32:00.271Z,89.50
2023-01-03T23:34:26.904Z,88.20
2023-01-03T23:36:53.500Z,87.90
2023-01-03T23:39:20.075Z,87.70
2023-01-03T23:41:46.687Z,87.60
2023-01-03T23:44:13.461Z,87.30
2023-01-03T23:46:40.060Z,87.20
2023-01-03T23:49:06.921Z,87.10
2023-01-03T23:51:33.573Z,86.90
2023-01-03T23:54:00.152Z,86.80
2023-01-03T23:56:26.762Z,86.70
2023-01-03T23:58:53.384Z,86.60
